Columbia — WDD6400 — position and weather

sailwx.info

Track history (hours):
 
Tides and Currents Weather Stations Pressure Air Temp Water Temp Dewpoint Dewpoint Depression Visibility Wind Speed Wind Dir Waves Ship Positions

Columbia

Owner: OSG Ship Management Inc., Tampa, FL. More information available from US FCC via Universal Licensing System and Coast Guard Vessel Documentation Center.

Last reported at 2017-Dec-13 06:29 UTC. Time now 2017-Dec-16 19:05 UTC.
Position N 26°58' W 079°52'.

Length 194 m; draft 5.9 m.

Type: Towing. MMSI: 367172440.

Date/timePositionNaut miles runAvg speedWind from/ knotsBaromVisibWave heightAir tempDewpointWater temp
2017-Dec-13 06:29N 26°58' W 079°52'911.2
2017-Dec-13 05:38N 26°49' W 079°52'211.2
2017-Dec-13 05:30N 26°47' W 079°52'511.1
2017-Dec-13 05:00N 26°42' W 079°52'1911.2
2017-Dec-13 03:19N 26°23' W 079°53'411.1
2017-Dec-13 02:59N 26°19' W 079°53'611.4
2017-Dec-13 02:30N 26°14' W 079°54'611.8
2017-Dec-13 02:00N 26°08' W 079°54'611.8
2017-Dec-13 01:30N 26°02' W 079°54'611.8
2017-Dec-13 01:00N 25°56' W 079°55'611.7
2017-Dec-13 00:30N 25°50' W 079°55'611.7
2017-Dec-13 00:00N 25°45' W 079°56'611.5
2017-Dec-12 23:30N 25°39' W 079°56'611.3
2017-Dec-12 23:00N 25°33' W 079°56'  
2017-Dec-07 00:06N 29°33' W 094°55'2 8.1
2017-Dec-06 23:50N 29°35' W 094°56'3 8.2
2017-Dec-06 23:30N 29°38' W 094°58'4 7.8
2017-Dec-06 23:00N 29°41' W 094°59'11 5.7
2017-Dec-06 21:05N 29°45' W 095°11'1 4.2
2017-Dec-06 20:51N 29°44' W 095°12'  
Track history (hours):
 
Tides and Currents Weather Stations Pressure Air Temp Water Temp Dewpoint Dewpoint Depression Visibility Wind Speed Wind Dir Waves Ship Positions

Columbia

Owner: OSG Ship Management Inc., Tampa, FL. More information available from US FCC via Universal Licensing System and Coast Guard Vessel Documentation Center.

Last reported at 2017-Dec-13 06:29 UTC. Time now 2017-Dec-16 19:05 UTC.
Position N 26°58' W 079°52'.

Length 194 m; draft 5.9 m.

Type: Towing. MMSI: 367172440.

Date/timePositionNaut miles runAvg speedWind from/ knotsBaromVisibWave heightAir tempDewpointWater temp
2017-Dec-13 06:29N 26°58' W 079°52'911.2
2017-Dec-13 05:38N 26°49' W 079°52'211.2
2017-Dec-13 05:30N 26°47' W 079°52'511.1
2017-Dec-13 05:00N 26°42' W 079°52'1911.2
2017-Dec-13 03:19N 26°23' W 079°53'411.1
2017-Dec-13 02:59N 26°19' W 079°53'611.4
2017-Dec-13 02:30N 26°14' W 079°54'611.8
2017-Dec-13 02:00N 26°08' W 079°54'611.8
2017-Dec-13 01:30N 26°02' W 079°54'611.8
2017-Dec-13 01:00N 25°56' W 079°55'611.7
2017-Dec-13 00:30N 25°50' W 079°55'611.7
2017-Dec-13 00:00N 25°45' W 079°56'611.5
2017-Dec-12 23:30N 25°39' W 079°56'611.3
2017-Dec-12 23:00N 25°33' W 079°56'  
2017-Dec-07 00:06N 29°33' W 094°55'2 8.1
2017-Dec-06 23:50N 29°35' W 094°56'3 8.2
2017-Dec-06 23:30N 29°38' W 094°58'4 7.8
2017-Dec-06 23:00N 29°41' W 094°59'11 5.7
2017-Dec-06 21:05N 29°45' W 095°11'1 4.2
2017-Dec-06 20:51N 29°44' W 095°12'  

Dump ship's entire track history